Huvudsida
METAR-TAF:

METAR-TAF

Flygplatser :

Malmens flygplats

Linköping, Sverige

latitud: 58-24N, longitud: 015-31E, höjd: 93 m

Aktuellt väderrapport

Denna rapport gjordes för 42 minuter sedan, klockan 03:20 UTC
Vind 10 kt från sydväst
Temperatur 3°C
Fuktighet 81%
Tryck 998 hPa
Sikt 10 km eller mer

METAR: ESCF 190320Z AUTO 23010KT 9999 NCD 03/M00 Q0998

Tid: 05:02 (04:02 UTC)

Väderprognos

Denna rapport gjordes för 16 timmar och 32 minuter sedan, klockan 11:30 UTC
Prognos gäller från 18 kl. 12 UTC till 18 kl. 16 UTC
Vind 18 kt från väst/sydväst i byarna ända upp till 27 kt
Sikt 10 km eller mer
Brutna moln på en höjd av 2500 ft
Temporärt
från 18 kl. 12 UTC till 18 kl. 16 UTC
Vind 26 kt från väst/sydväst i byarna ända upp till 33 kt
Sikt 10 km eller mer
Brutna moln på en höjd av 2000 ft, Högtornande cumulus.
lätta regnskurar

TAF: ESCF 181130Z 1812/1816 24018G27KT 9999 BKN025 TEMPO 1812/1816 24026G33KT 9999 -SHRA BKN020TCU RMK MIL

Aktuella väderrapporter och prognoser från 4000 flygplatser (METAR- och TAF-rapporter).

De tillgängliga stationerna syns som gula och röda prickar på kartan.

För musen över prickarna för att se namnen på stationerna.

Klicka sedan för att få väderrapporter och prognoser.

För att ändra kartan: Klicka på de gröna knapparna med ett svart kors på för att zooma in; den gröna knappen med ett streck på för att zooma ut; eller på de gröna pilarna för angränsande kartor.


METAR-TAF: